createdAt,value
2022-08-07T00:02:53.586Z,4.10
2022-08-07T00:08:00.089Z,4.00
2022-08-07T00:13:24.054Z,4.10
2022-08-07T00:18:30.636Z,3.55
2022-08-07T00:23:37.272Z,3.92
2022-08-07T00:28:46.215Z,3.75
2022-08-07T00:34:00.948Z,4.38
2022-08-07T00:39:05.171Z,4.15
2022-08-07T00:44:10.692Z,4.28
2022-08-07T00:50:16.717Z,4.32
2022-08-07T00:54:43.848Z,4.80
2022-08-07T00:59:49.967Z,4.63
2022-08-07T01:04:58.263Z,4.60
2022-08-07T01:10:04.991Z,4.50
2022-08-07T01:15:18.988Z,5.00
2022-08-07T01:20:34.203Z,4.38
2022-08-07T01:25:55.099Z,4.95
2022-08-07T01:31:02.890Z,5.10
2022-08-07T01:36:12.207Z,4.80
2022-08-07T01:41:26.349Z,4.40
2022-08-07T01:46:36.605Z,5.15
2022-08-07T01:52:04.127Z,4.22
2022-08-07T01:57:24.423Z,5.03
2022-08-07T02:03:19.320Z,4.65
2022-08-07T02:08:02.179Z,4.35
2022-08-07T02:13:15.023Z,4.70
2022-08-07T02:18:29.981Z,5.03
2022-08-07T02:23:36.385Z,4.65
2022-08-07T02:28:43.944Z,4.68
2022-08-07T02:34:03.583Z,5.10
2022-08-07T02:39:17.517Z,5.15
2022-08-07T02:44:47.768Z,5.40
2022-08-07T02:49:58.572Z,5.45
2022-08-07T02:55:27.396Z,4.93
2022-08-07T03:00:39.115Z,5.15
2022-08-07T03:05:46.357Z,5.00
2022-08-07T03:10:53.184Z,4.85
2022-08-07T03:16:07.724Z,4.50
2022-08-07T03:21:12.711Z,7.00
2022-08-07T03:26:26.313Z,5.03
2022-08-07T03:31:42.911Z,5.53
2022-08-07T03:41:54.183Z,4.97
2022-08-07T03:47:12.987Z,5.28
2022-08-07T03:52:22.773Z,4.15
2022-08-07T03:58:32.637Z,5.05
2022-08-07T04:03:03.794Z,4.72
2022-08-07T04:08:18.484Z,5.30
2022-08-07T04:13:27.703Z,4.95
2022-08-07T04:18:59.393Z,5.57
2022-08-07T04:24:07.002Z,4.93
2022-08-07T04:29:15.302Z,5.30
2022-08-07T04:34:24.318Z,6.45
2022-08-07T04:39:38.664Z,5.00
2022-08-07T04:44:54.453Z,5.70
2022-08-07T04:50:15.372Z,6.47
2022-08-07T04:58:10.233Z,7.28
2022-08-07T05:01:18.205Z,6.90
2022-08-07T05:06:43.507Z,7.75
2022-08-07T05:11:57.243Z,6.50
2022-08-07T05:17:12.013Z,6.57
2022-08-07T05:22:27.679Z,6.30
2022-08-07T05:28:16.662Z,6.90
2022-08-07T05:33:04.183Z,6.47
2022-08-07T05:38:11.796Z,5.10
2022-08-07T05:43:18.594Z,5.50
2022-08-07T05:48:26.424Z,5.75
2022-08-07T05:54:13.954Z,6.50
2022-08-07T05:59:00.877Z,6.60
2022-08-07T06:04:06.817Z,5.80
2022-08-07T06:09:20.125Z,6.10
2022-08-07T06:14:28.655Z,5.90
2022-08-07T06:19:52.087Z,6.63
2022-08-07T06:25:03.974Z,5.93
2022-08-07T06:30:32.300Z,5.80
2022-08-07T06:35:45.543Z,4.85
2022-08-07T06:40:56.473Z,5.60
2022-08-07T06:46:03.445Z,5.75
2022-08-07T06:56:48.538Z,5.40
2022-08-07T07:02:00.311Z,5.10
2022-08-07T07:07:10.507Z,4.82
2022-08-07T07:12:48.491Z,5.47
2022-08-07T07:18:00.120Z,5.03
2022-08-07T07:24:09.307Z,5.30
2022-08-07T07:28:48.737Z,4.57
2022-08-07T07:34:11.250Z,4.38
2022-08-07T07:39:22.219Z,4.55
2022-08-07T07:44:30.886Z,4.70
2022-08-07T07:50:32.772Z,4.25
2022-08-07T07:55:03.797Z,4.38
2022-08-07T08:00:11.292Z,4.13
2022-08-07T08:05:22.347Z,4.18
2022-08-07T08:10:35.543Z,5.40
2022-08-07T08:15:57.877Z,4.45
2022-08-07T08:21:04.760Z,4.88
2022-08-07T08:32:04.720Z,4.65
2022-08-07T08:38:01.795Z,4.40
2022-08-07T08:42:44.778Z,4.60
2022-08-07T08:48:01.883Z,4.00
2022-08-07T08:53:22.938Z,4.45
2022-08-07T08:58:36.974Z,4.78
2022-08-07T09:03:52.916Z,4.13
2022-08-07T09:09:29.838Z,4.88
2022-08-07T09:14:42.108Z,4.72
2022-08-07T09:20:03.038Z,4.35
2022-08-07T09:25:30.933Z,3.83
2022-08-07T09:30:54.682Z,4.60
2022-08-07T09:36:07.886Z,5.10
2022-08-07T09:41:24.495Z,5.07
2022-08-07T09:47:52.329Z,4.32
2022-08-07T09:52:34.387Z,4.95
2022-08-07T09:58:17.868Z,4.88
2022-08-07T10:04:04.883Z,4.90
2022-08-07T10:09:23.825Z,5.05
2022-08-07T10:15:02.251Z,5.28
2022-08-07T10:20:22.155Z,4.95
2022-08-07T10:25:51.921Z,4.97
2022-08-07T10:31:12.169Z,4.68
2022-08-07T10:36:29.740Z,4.97
2022-08-07T10:41:51.230Z,5.72
2022-08-07T10:47:11.984Z,4.93
2022-08-07T10:52:33.541Z,5.25
2022-08-07T10:57:51.554Z,5.43
2022-08-07T11:03:11.045Z,5.00
2022-08-07T11:08:30.257Z,6.00
2022-08-07T11:14:41.966Z,5.35
2022-08-07T11:19:11.240Z,5.55
2022-08-07T11:24:23.452Z,6.13
2022-08-07T11:29:41.927Z,5.22
2022-08-07T11:34:52.346Z,5.63
2022-08-07T11:40:09.199Z,5.97
2022-08-07T11:45:35.670Z,6.60
2022-08-07T11:50:57.235Z,5.95
2022-08-07T11:56:27.306Z,6.80
2022-08-07T12:01:59.946Z,6.32
2022-08-07T12:07:20.399Z,6.93
2022-08-07T12:12:38.996Z,7.45
2022-08-07T12:17:58.644Z,7.25
2022-08-07T12:23:37.126Z,8.60
2022-08-07T12:28:53.963Z,5.97
2022-08-07T12:34:04.261Z,8.25
2022-08-07T12:39:42.525Z,8.32
2022-08-07T12:44:45.110Z,7.20
2022-08-07T12:50:05.093Z,8.40
2022-08-07T12:55:40.646Z,8.05
2022-08-07T13:00:51.810Z,7.70
2022-08-07T13:06:21.424Z,8.68
2022-08-07T13:12:03.126Z,8.00
2022-08-07T13:17:11.635Z,7.45
2022-08-07T13:22:31.848Z,6.72
2022-08-07T13:28:11.007Z,7.35
2022-08-07T13:34:29.875Z,7.95
2022-08-07T13:38:43.576Z,6.95
2022-08-07T13:43:52.517Z,7.93
2022-08-07T13:49:08.689Z,7.38
2022-08-07T13:54:33.980Z,6.95
2022-08-07T13:59:39.765Z,7.03
2022-08-07T14:04:54.641Z,6.85
2022-08-07T14:10:17.483Z,7.20
2022-08-07T14:15:31.903Z,9.13
2022-08-07T14:20:49.262Z,6.50
2022-08-07T14:26:30.006Z,6.47
2022-08-07T14:37:03.446Z,4.70
2022-08-07T14:42:19.758Z,5.20
2022-08-07T14:47:33.785Z,5.72
2022-08-07T14:52:39.965Z,5.95
2022-08-07T14:57:58.187Z,5.70
2022-08-07T15:03:18.850Z,6.43
2022-08-07T15:19:05.512Z,5.53
2022-08-07T15:25:14.760Z,5.93
2022-08-07T15:35:16.822Z,5.70
2022-08-07T15:40:33.981Z,5.28
2022-08-07T15:45:56.427Z,5.82
2022-08-07T15:56:37.285Z,5.47
2022-08-07T16:02:01.912Z,5.65
2022-08-07T16:08:28.921Z,6.10
2022-08-07T16:13:01.088Z,5.93
2022-08-07T16:18:49.869Z,5.20
2022-08-07T16:24:03.976Z,5.57
2022-08-07T16:30:17.708Z,5.22
2022-08-07T16:34:51.096Z,6.00
2022-08-07T16:40:36.710Z,5.25
2022-08-07T16:52:49.213Z,3.30
2022-08-07T16:58:01.812Z,3.65
2022-08-07T17:03:10.519Z,4.00
2022-08-07T17:09:09.722Z,3.80
2022-08-07T17:14:18.307Z,4.38
2022-08-07T17:20:02.033Z,5.22
2022-08-07T17:25:10.178Z,4.80
2022-08-07T17:30:20.522Z,6.10
2022-08-07T17:35:50.782Z,5.78
2022-08-07T17:42:02.739Z,3.88
2022-08-07T17:46:41.570Z,5.28
2022-08-07T17:52:01.224Z,3.83
2022-08-07T17:57:18.724Z,3.53
2022-08-07T18:02:31.978Z,4.07
2022-08-07T18:07:46.064Z,4.28
2022-08-07T18:13:10.985Z,4.22
2022-08-07T18:18:46.259Z,4.47
2022-08-07T18:24:00.696Z,4.28
2022-08-07T18:30:06.320Z,4.90
2022-08-07T18:35:10.476Z,5.05
2022-08-07T18:40:42.246Z,4.95
2022-08-07T18:46:24.416Z,6.28
2022-08-07T18:52:43.946Z,5.18
2022-08-07T18:57:31.031Z,5.20
2022-08-07T19:02:43.031Z,5.10
2022-08-07T19:07:59.256Z,5.13
2022-08-07T19:13:21.481Z,5.30
2022-08-07T19:18:45.133Z,5.35
2022-08-07T19:23:58.810Z,5.07
2022-08-07T19:31:06.200Z,6.05
2022-08-07T19:34:36.337Z,4.43
2022-08-07T19:39:57.895Z,4.53
2022-08-07T19:45:10.122Z,3.95
2022-08-07T19:50:44.189Z,4.37
2022-08-07T19:55:57.536Z,4.28
2022-08-07T20:01:03.148Z,4.38
2022-08-07T20:06:30.507Z,5.47
2022-08-07T20:12:21.909Z,5.80
2022-08-07T20:17:09.032Z,4.65
2022-08-07T20:22:18.084Z,4.25
2022-08-07T20:27:47.450Z,5.15
2022-08-07T20:32:56.417Z,4.63
2022-08-07T20:38:03.077Z,5.00
2022-08-07T20:43:19.705Z,4.75
2022-08-07T20:48:30.267Z,4.50
2022-08-07T20:54:02.908Z,4.72
2022-08-07T20:59:06.166Z,5.78
2022-08-07T21:04:33.974Z,4.65
2022-08-07T21:09:51.579Z,4.32
2022-08-07T21:15:08.786Z,4.50
2022-08-07T21:20:26.677Z,5.03
2022-08-07T21:25:56.338Z,4.40
2022-08-07T21:36:31.189Z,5.07
2022-08-07T21:41:52.074Z,5.63
2022-08-07T21:47:17.259Z,5.25
2022-08-07T21:52:33.947Z,5.00
2022-08-07T21:57:52.158Z,4.68
2022-08-07T22:03:06.293Z,4.63
2022-08-07T22:08:12.520Z,5.22
2022-08-07T22:13:24.436Z,5.55
2022-08-07T22:18:56.357Z,5.63
2022-08-07T22:24:10.471Z,4.20
2022-08-07T22:29:38.092Z,4.55
2022-08-07T22:34:54.016Z,4.93
2022-08-07T22:46:04.496Z,4.30
2022-08-07T22:51:07.566Z,4.53
2022-08-07T23:01:49.614Z,4.65
2022-08-07T23:07:39.878Z,3.83
2022-08-07T23:12:53.953Z,4.05
2022-08-07T23:18:11.000Z,4.43
2022-08-07T23:24:06.821Z,4.85
2022-08-07T23:29:43.937Z,5.40
2022-08-07T23:35:11.956Z,4.82
2022-08-07T23:40:34.468Z,4.35
2022-08-07T23:46:03.795Z,4.45
2022-08-07T23:52:59.866Z,3.67
2022-08-07T23:56:53.667Z,3.92
